地図

経路データ

SID SEASON NUMBER BASIN SUBBASIN NAME ISO_TIME NATURE LAT LON WMO_WIND WMO_PRES WMO_AGENCY TRACK_TYPE DIST2LAND LANDFALL IFLAG USA_AGENCY USA_ATCF_ID USA_LAT USA_LON USA_RECORD USA_STATUS USA_WIND USA_PRES USA_SSHS USA_R34_NE USA_R34_SE USA_R34_SW USA_R34_NW USA_R50_NE USA_R50_SE USA_R50_SW USA_R50_NW USA_R64_NE USA_R64_SE USA_R64_SW USA_R64_NW USA_POCI USA_ROCI USA_RMW USA_EYE TOKYO_LAT TOKYO_LON TOKYO_GRADE TOKYO_WIND TOKYO_PRES TOKYO_R50_DIR TOKYO_R50_LONG TOKYO_R50_SHORT TOKYO_R30_DIR TOKYO_R30_LONG TOKYO_R30_SHORT TOKYO_LAND CMA_LAT CMA_LON CMA_CAT CMA_WIND CMA_PRES HKO_LAT HKO_LON HKO_CAT HKO_WIND HKO_PRES NEWDELHI_LAT NEWDELHI_LON NEWDELHI_GRADE NEWDELHI_WIND NEWDELHI_PRES NEWDELHI_CI NEWDELHI_DP NEWDELHI_POCI REUNION_LAT REUNION_LON REUNION_TYPE REUNION_WIND REUNION_PRES REUNION_TNUM REUNION_CI REUNION_RMW REUNION_R34_NE REUNION_R34_SE REUNION_R34_SW REUNION_R34_NW REUNION_R50_NE REUNION_R50_SE REUNION_R50_SW REUNION_R50_NW REUNION_R64_NE REUNION_R64_SE REUNION_R64_SW REUNION_R64_NW BOM_LAT BOM_LON BOM_TYPE BOM_WIND BOM_PRES BOM_TNUM BOM_CI BOM_RMW BOM_R34_NE BOM_R34_SE BOM_R34_SW BOM_R34_NW BOM_R50_NE BOM_R50_SE BOM_R50_SW BOM_R50_NW BOM_R64_NE BOM_R64_SE BOM_R64_SW BOM_R64_NW BOM_ROCI BOM_POCI BOM_EYE BOM_POS_METHOD BOM_PRES_METHOD NADI_LAT NADI_LON NADI_CAT NADI_WIND NADI_PRES WELLINGTON_LAT WELLINGTON_LON WELLINGTON_WIND WELLINGTON_PRES DS824_LAT DS824_LON DS824_STAGE DS824_WIND DS824_PRES TD9636_LAT TD9636_LON TD9636_STAGE TD9636_WIND TD9636_PRES TD9635_LAT TD9635_LON TD9635_WIND TD9635_PRES TD9635_ROCI NEUMANN_LAT NEUMANN_LON NEUMANN_CLASS NEUMANN_WIND NEUMANN_PRES MLC_LAT MLC_LON MLC_CLASS MLC_WIND MLC_PRES USA_GUST BOM_GUST BOM_GUST_PER REUNION_GUST REUNION_GUST_PER USA_SEAHGT USA_SEARAD_NE USA_SEARAD_SE USA_SEARAD_SW USA_SEARAD_NW STORM_SPEED STORM_DIR
1901034N06115 1901 12 WP MM NOT_NAMED 1901-02-02 16:00:00 NR 6.20000 115.000 main 96 96 __________O___ -1 6.20000 115.000 7 11 280
1901034N06115 1901 12 WP MM NOT_NAMED 1901-02-02 18:00:00 NR 6.26012 114.643 main 134 134 __________P___ -1 6.26012 114.643 7 11 279
1901034N06115 1901 12 WP MM NOT_NAMED 1901-02-02 21:00:00 NR 6.34628 114.116 main 173 181 __________P___ -1 6.34628 114.116 7 10 279
1901034N06115 1901 12 WP MM NOT_NAMED 1901-02-03 00:00:00 NR 6.42269 113.613 main 206 206 __________P___ -1 6.42269 113.613 7 10 278
1901034N06115 1901 12 WP MM NOT_NAMED 1901-02-03 03:00:00 NR 6.48391 113.145 main 235 235 __________P___ -1 6.48391 113.145 7 9 277
1901034N06115 1901 12 WP MM NOT_NAMED 1901-02-03 04:00:00 NR 6.50000 113.000 main 239 239 __________O___ -1 6.50000 113.000 4 8 276
1901034N06115 1901 12 WP MM NOT_NAMED 1901-02-03 06:00:00 NR 6.52526 112.727 main 257 257 __________P___ -1 6.52526 112.727 4 8 274
1901034N06115 1901 12 WP MM NOT_NAMED 1901-02-03 09:00:00 NR 6.55062 112.348 main 292 292 __________P___ -1 6.55062 112.348 4 7 273
1901034N06115 1901 12 WP MM NOT_NAMED 1901-02-03 12:00:00 NR 6.56932 111.989 main 315 315 __________P___ -1 6.56932 111.989 4 7 273
1901034N06115 1901 12 WP MM NOT_NAMED 1901-02-03 15:00:00 NR 6.59068 111.626 main 347 347 __________P___ -1 6.59068 111.626 4 7 274
1901034N06115 1901 12 WP MM NOT_NAMED 1901-02-03 16:00:00 NR 6.60000 111.500 main 356 356 __________O___ -1 6.60000 111.500 4 8 278
1901034N06115 1901 12 WP MM NOT_NAMED 1901-02-03 18:00:00 NR 6.64336 111.223 main 382 382 __________P___ -1 6.64336 111.223 4 9 279
1901034N06115 1901 12 WP MM NOT_NAMED 1901-02-03 21:00:00 NR 6.71507 110.795 main 402 381 __________P___ -1 6.71507 110.795 4 9 279
1901034N06115 1901 12 WP MM NOT_NAMED 1901-02-04 00:00:00 NR 6.77531 110.362 main 381 350 __________P___ -1 6.77531 110.362 4 9 276
1901034N06115 1901 12 WP MM NOT_NAMED 1901-02-04 03:00:00 NR 6.80221 109.937 main 350 345 __________P___ -1 6.80221 109.937 4 8 273
1901034N06115 1901 12 WP MM NOT_NAMED 1901-02-04 04:00:00 NR 6.80000 109.800 main 345 330 __________O___ -1 6.80000 109.800 4 8 267
1901034N06115 1901 12 WP MM NOT_NAMED 1901-02-04 06:00:00 NR 6.77801 109.533 main 330 304 __________P___ -1 6.77801 109.533 4 8 262
1901034N06115 1901 12 WP MM NOT_NAMED 1901-02-04 09:00:00 NR 6.70747 109.146 main 304 285 __________P___ -1 6.70747 109.146 4 8 257
1901034N06115 1901 12 WP MM NOT_NAMED 1901-02-04 12:00:00 NR 6.59743 108.773 main 285 269 __________P___ -1 6.59743 108.773 4 8 251
1901034N06115 1901 12 WP MM NOT_NAMED 1901-02-04 15:00:00 NR 6.45410 108.416 main 269 257 __________P___ -1 6.45410 108.416 4 8 247
1901034N06115 1901 12 WP MM NOT_NAMED 1901-02-04 16:00:00 NR 6.40000 108.300 main 257 246 __________O___ -1 6.40000 108.300 2 8 243
1901034N06115 1901 12 WP MM NOT_NAMED 1901-02-04 18:00:00 NR 6.28370 108.073 main 246 226 __________P___ -1 6.28370 108.073 2 8 241
1901034N06115 1901 12 WP MM NOT_NAMED 1901-02-04 21:00:00 NR 6.09245 107.743 main 228 212 __________P___ -1 6.09245 107.743 2 8 238
1901034N06115 1901 12 WP MM NOT_NAMED 1901-02-05 00:00:00 NR 5.88656 107.421 main 216 205 __________P___ -1 5.88656 107.421 2 8 236
1901034N06115 1901 12 WP MM NOT_NAMED 1901-02-05 03:00:00 NR 5.67224 107.105 main 210 201 __________P___ -1 5.67224 107.105 2 8 236
1901034N06115 1901 12 WP MM NOT_NAMED 1901-02-05 04:00:00 NR 5.60000 107.000 main 207 __________O___ -1 5.60000 107.000 2 8 235

デジタル台風データ・検索

IBTrACS Databaseについて

本データベースは、米国NOAAが公開する1842年以降の世界の熱帯低気圧のベストトラックデータアーカイブInternational Best Track Archive for Climate Stewardship (IBTrACS)を、ウェブで閲覧しやすい形式に変換したものです。

最終更新日:2021-10-19